This is the latest recevied weather packets stored in our database for station/object W4MSI. If no packets are shown the sender has not sent any weather packets the latest 10 day(s).
| Time | Temp. | Humidity | Pressure | Rain* | Wind** | Luminosity | Snow |
|---|---|---|---|---|---|---|---|
| 1777517050 | 13.33° C | 79% | 1015.5 hPa | 0 mm | - | 0 W/m² | - |
| 1777516747 | 13.33° C | 80% | 1015.4 hPa | 0 mm | - | 0 W/m² | - |
| 1777516443 | 12.78° C | 81% | 1015.2 hPa | 0 mm | - | 0 W/m² | - |
| 1777516138 | 12.78° C | 82% | 1015.2 hPa | 0 mm | - | 0 W/m² | - |
| 1777515835 | 12.78° C | 84% | 1015 hPa | 0 mm | - | 0 W/m² | - |
| 1777515532 | 12.22° C | 84% | 1014.7 hPa | 0 mm | - | 0 W/m² | - |
| 1777515230 | 12.78° C | 84% | 1014.6 hPa | 0 mm | - | 0 W/m² | - |
| 1777514925 | 12.78° C | 84% | 1014.5 hPa | 0 mm | - | 0 W/m² | - |
| 1777514622 | 13.33° C | 82% | 1014.6 hPa | 0 mm | - | 0 W/m² | - |
| 1777514319 | 13.33° C | 79% | 1014.4 hPa | 0 mm | - | 0 W/m² | - |
| 1777514015 | 13.33° C | 76% | 1014.4 hPa | 0 mm | - | 0 W/m² | - |
| 1777513713 | 13.33° C | 79% | 1014.3 hPa | 0 mm | - | 0 W/m² | - |
| 1777513410 | 12.78° C | 79% | 1014.2 hPa | 0 mm | - | 0 W/m² | - |
| 1777513106 | 13.33° C | 83% | 1014.3 hPa | 0 mm | - | 0 W/m² | - |
| 1777512802 | 13.33° C | 81% | 1014.2 hPa | 0 mm | - | 0 W/m² | - |
| 1777512499 | 13.33° C | 79% | 1014 hPa | 0 mm | - | 0 W/m² | - |
| 1777512196 | 13.89° C | 79% | 1013.9 hPa | 0 mm | - | 0 W/m² | - |
| 1777511893 | 13.89° C | 78% | 1013.9 hPa | 0 mm | - | 0 W/m² | - |
| 1777511591 | 13.89° C | 77% | 1013.8 hPa | 0 mm | - | 0 W/m² | - |
| 1777511289 | 13.89° C | 76% | 1013.7 hPa | 0 mm | - | 0 W/m² | - |
| 1777510983 | 14.44° C | 77% | 1013.8 hPa | 0 mm | - | 0 W/m² | - |
| 1777510681 | 14.44° C | 75% | 1013.7 hPa | 0 mm | - | 0 W/m² | - |
| 1777510376 | 15° C | 74% | 1013.6 hPa | 0 mm | - | 0 W/m² | - |
| 1777510073 | 15° C | 74% | 1013.6 hPa | 0 mm | - | 1 W/m² | - |
| 1777509769 | 15° C | 73% | 1013.6 hPa | 0 mm | - | 2 W/m² | - |
* Rain latest hour (hover to see other rain measurements)
** Current wind speed in m/s (hover to see current wind gust speed)